sensor_id;sensor_type;location;lat;lon;timestamp;P1;durP1;ratioP1;P2;durP2;ratioP2
23119;SDS011;11729;50.836;4.330;2022-10-15T00:01:29;67.78;;;47.20;;
23119;SDS011;11729;50.836;4.330;2022-10-15T00:03:55;66.82;;;46.80;;
23119;SDS011;11729;50.836;4.330;2022-10-15T00:06:20;69.93;;;46.83;;
23119;SDS011;11729;50.836;4.330;2022-10-15T00:08:46;61.33;;;43.97;;
23119;SDS011;11729;50.836;4.330;2022-10-15T00:11:15;53.45;;;42.08;;
23119;SDS011;11729;50.836;4.330;2022-10-15T00:13:43;58.92;;;42.63;;
23119;SDS011;11729;50.836;4.330;2022-10-15T00:16:10;55.55;;;41.72;;
23119;SDS011;11729;50.836;4.330;2022-10-15T00:18:38;55.55;;;40.25;;
23119;SDS011;11729;50.836;4.330;2022-10-15T00:21:08;54.03;;;38.53;;
23119;SDS011;11729;50.836;4.330;2022-10-15T00:23:36;50.35;;;38.35;;
23119;SDS011;11729;50.836;4.330;2022-10-15T00:26:09;51.75;;;37.55;;
23119;SDS011;11729;50.836;4.330;2022-10-15T00:28:40;48.08;;;37.13;;
23119;SDS011;11729;50.836;4.330;2022-10-15T00:31:07;49.92;;;36.28;;
23119;SDS011;11729;50.836;4.330;2022-10-15T00:33:34;48.65;;;36.42;;
23119;SDS011;11729;50.836;4.330;2022-10-15T00:36:01;48.55;;;35.10;;
23119;SDS011;11729;50.836;4.330;2022-10-15T00:38:29;48.05;;;35.60;;
23119;SDS011;11729;50.836;4.330;2022-10-15T00:40:55;45.33;;;34.50;;
23119;SDS011;11729;50.836;4.330;2022-10-15T00:43:37;43.38;;;34.78;;
23119;SDS011;11729;50.836;4.330;2022-10-15T00:49:03;39.70;;;33.47;;
23119;SDS011;11729;50.836;4.330;2022-10-15T00:51:51;43.90;;;32.40;;
23119;SDS011;11729;50.836;4.330;2022-10-15T00:54:24;43.92;;;32.65;;
23119;SDS011;11729;50.836;4.330;2022-10-15T00:56:51;41.47;;;31.77;;
23119;SDS011;11729;50.836;4.330;2022-10-15T00:59:18;39.13;;;32.17;;
23119;SDS011;11729;50.836;4.330;2022-10-15T01:01:47;41.67;;;31.50;;
23119;SDS011;11729;50.836;4.330;2022-10-15T01:04:13;42.83;;;32.45;;
23119;SDS011;11729;50.836;4.330;2022-10-15T01:06:41;38.60;;;31.35;;
23119;SDS011;11729;50.836;4.330;2022-10-15T01:09:07;40.80;;;33.13;;
23119;SDS011;11729;50.836;4.330;2022-10-15T01:17:19;38.08;;;30.58;;
23119;SDS011;11729;50.836;4.330;2022-10-15T01:31:23;39.90;;;31.73;;
23119;SDS011;11729;50.836;4.330;2022-10-15T01:34:03;44.67;;;32.72;;
23119;SDS011;11729;50.836;4.330;2022-10-15T01:41:40;44.13;;;32.10;;
23119;SDS011;11729;50.836;4.330;2022-10-15T01:44:35;39.60;;;31.65;;
23119;SDS011;11729;50.836;4.330;2022-10-15T01:47:11;38.70;;;31.58;;
23119;SDS011;11729;50.836;4.330;2022-10-15T01:49:43;41.75;;;32.50;;
23119;SDS011;11729;50.836;4.330;2022-10-15T01:52:15;42.67;;;34.15;;
23119;SDS011;11729;50.836;4.330;2022-10-15T01:54:45;41.38;;;33.80;;
23119;SDS011;11729;50.836;4.330;2022-10-15T01:57:13;44.55;;;35.03;;
23119;SDS011;11729;50.836;4.330;2022-10-15T01:59:42;40.72;;;34.10;;
23119;SDS011;11729;50.836;4.330;2022-10-15T02:02:08;44.08;;;34.28;;
23119;SDS011;11729;50.836;4.330;2022-10-15T02:04:33;44.72;;;35.72;;
23119;SDS011;11729;50.836;4.330;2022-10-15T02:10:18;47.15;;;34.83;;
23119;SDS011;11729;50.836;4.330;2022-10-15T02:15:50;45.67;;;36.63;;
23119;SDS011;11729;50.836;4.330;2022-10-15T02:18:45;48.58;;;36.22;;
23119;SDS011;11729;50.836;4.330;2022-10-15T02:21:16;51.95;;;36.42;;
23119;SDS011;11729;50.836;4.330;2022-10-15T02:24:05;43.67;;;35.75;;
23119;SDS011;11729;50.836;4.330;2022-10-15T02:26:37;43.78;;;35.03;;
23119;SDS011;11729;50.836;4.330;2022-10-15T02:29:04;44.13;;;34.75;;
23119;SDS011;11729;50.836;4.330;2022-10-15T02:31:34;44.70;;;35.85;;
23119;SDS011;11729;50.836;4.330;2022-10-15T02:34:06;45.15;;;34.58;;
23119;SDS011;11729;50.836;4.330;2022-10-15T02:36:40;40.97;;;33.47;;
23119;SDS011;11729;50.836;4.330;2022-10-15T02:39:07;39.13;;;33.17;;
23119;SDS011;11729;50.836;4.330;2022-10-15T02:41:37;38.75;;;31.75;;
23119;SDS011;11729;50.836;4.330;2022-10-15T02:44:03;37.47;;;30.88;;
23119;SDS011;11729;50.836;4.330;2022-10-15T02:46:28;38.30;;;30.80;;
23119;SDS011;11729;50.836;4.330;2022-10-15T02:48:54;39.85;;;31.35;;
23119;SDS011;11729;50.836;4.330;2022-10-15T02:51:20;36.40;;;31.15;;
23119;SDS011;11729;50.836;4.330;2022-10-15T02:53:45;39.35;;;30.42;;
23119;SDS011;11729;50.836;4.330;2022-10-15T02:56:11;39.25;;;31.25;;
23119;SDS011;11729;50.836;4.330;2022-10-15T02:58:36;36.97;;;30.85;;
23119;SDS011;11729;50.836;4.330;2022-10-15T03:01:02;39.80;;;31.23;;
23119;SDS011;11729;50.836;4.330;2022-10-15T03:03:28;39.17;;;32.33;;
23119;SDS011;11729;50.836;4.330;2022-10-15T03:05:54;39.28;;;33.03;;
23119;SDS011;11729;50.836;4.330;2022-10-15T03:08:20;46.50;;;33.15;;
23119;SDS011;11729;50.836;4.330;2022-10-15T03:10:45;35.42;;;31.17;;
23119;SDS011;11729;50.836;4.330;2022-10-15T03:13:12;38.75;;;31.63;;
23119;SDS011;11729;50.836;4.330;2022-10-15T03:15:38;35.75;;;31.77;;
23119;SDS011;11729;50.836;4.330;2022-10-15T03:18:03;36.58;;;30.67;;
23119;SDS011;11729;50.836;4.330;2022-10-15T03:20:29;38.13;;;31.88;;
23119;SDS011;11729;50.836;4.330;2022-10-15T03:22:55;36.85;;;29.85;;
23119;SDS011;11729;50.836;4.330;2022-10-15T03:25:21;35.38;;;30.63;;
23119;SDS011;11729;50.836;4.330;2022-10-15T03:27:46;34.60;;;30.08;;
23119;SDS011;11729;50.836;4.330;2022-10-15T03:30:12;37.35;;;31.10;;
23119;SDS011;11729;50.836;4.330;2022-10-15T03:32:38;36.45;;;32.10;;
23119;SDS011;11729;50.836;4.330;2022-10-15T03:35:03;40.58;;;32.03;;
23119;SDS011;11729;50.836;4.330;2022-10-15T03:37:29;42.08;;;33.63;;
23119;SDS011;11729;50.836;4.330;2022-10-15T03:39:55;48.67;;;35.22;;
23119;SDS011;11729;50.836;4.330;2022-10-15T03:42:21;49.30;;;35.67;;
23119;SDS011;11729;50.836;4.330;2022-10-15T03:44:46;44.08;;;35.63;;
23119;SDS011;11729;50.836;4.330;2022-10-15T03:47:12;53.17;;;38.45;;
23119;SDS011;11729;50.836;4.330;2022-10-15T03:49:37;49.03;;;37.00;;
23119;SDS011;11729;50.836;4.330;2022-10-15T03:52:03;50.47;;;38.35;;
23119;SDS011;11729;50.836;4.330;2022-10-15T03:54:29;47.03;;;36.53;;
23119;SDS011;11729;50.836;4.330;2022-10-15T03:56:55;46.55;;;36.28;;
23119;SDS011;11729;50.836;4.330;2022-10-15T03:59:21;43.90;;;33.47;;
23119;SDS011;11729;50.836;4.330;2022-10-15T04:01:47;41.00;;;31.75;;
23119;SDS011;11729;50.836;4.330;2022-10-15T04:04:13;41.55;;;31.50;;
23119;SDS011;11729;50.836;4.330;2022-10-15T04:06:38;47.08;;;31.73;;
23119;SDS011;11729;50.836;4.330;2022-10-15T04:09:04;39.35;;;30.50;;
23119;SDS011;11729;50.836;4.330;2022-10-15T04:11:30;38.58;;;30.58;;
23119;SDS011;11729;50.836;4.330;2022-10-15T04:13:55;36.75;;;29.60;;
23119;SDS011;11729;50.836;4.330;2022-10-15T04:16:21;38.13;;;29.73;;
23119;SDS011;11729;50.836;4.330;2022-10-15T04:18:46;38.10;;;28.02;;
23119;SDS011;11729;50.836;4.330;2022-10-15T04:21:13;35.92;;;27.67;;
23119;SDS011;11729;50.836;4.330;2022-10-15T04:23:39;37.22;;;28.08;;
23119;SDS011;11729;50.836;4.330;2022-10-15T04:26:04;38.65;;;27.25;;
23119;SDS011;11729;50.836;4.330;2022-10-15T04:28:30;35.63;;;27.92;;
23119;SDS011;11729;50.836;4.330;2022-10-15T04:30:57;39.15;;;28.58;;
23119;SDS011;11729;50.836;4.330;2022-10-15T04:33:24;35.75;;;27.27;;
23119;SDS011;11729;50.836;4.330;2022-10-15T04:35:57;36.13;;;27.55;;
23119;SDS011;11729;50.836;4.330;2022-10-15T04:38:27;39.50;;;27.48;;
23119;SDS011;11729;50.836;4.330;2022-10-15T04:40:57;35.50;;;26.90;;
23119;SDS011;11729;50.836;4.330;2022-10-15T04:43:24;39.72;;;26.75;;
23119;SDS011;11729;50.836;4.330;2022-10-15T04:45:50;38.63;;;26.77;;
23119;SDS011;11729;50.836;4.330;2022-10-15T04:48:15;39.55;;;27.45;;
23119;SDS011;11729;50.836;4.330;2022-10-15T04:50:41;38.05;;;27.20;;
23119;SDS011;11729;50.836;4.330;2022-10-15T04:53:06;37.28;;;26.13;;
23119;SDS011;11729;50.836;4.330;2022-10-15T04:55:32;37.88;;;26.05;;
23119;SDS011;11729;50.836;4.330;2022-10-15T04:57:57;37.35;;;24.58;;
23119;SDS011;11729;50.836;4.330;2022-10-15T05:00:23;30.45;;;24.17;;
23119;SDS011;11729;50.836;4.330;2022-10-15T05:02:48;32.40;;;23.77;;
23119;SDS011;11729;50.836;4.330;2022-10-15T05:05:14;28.45;;;22.00;;
23119;SDS011;11729;50.836;4.330;2022-10-15T05:07:40;28.52;;;21.60;;
23119;SDS011;11729;50.836;4.330;2022-10-15T05:10:05;28.70;;;21.30;;
23119;SDS011;11729;50.836;4.330;2022-10-15T05:12:31;31.45;;;20.85;;
23119;SDS011;11729;50.836;4.330;2022-10-15T05:14:57;27.45;;;20.65;;
23119;SDS011;11729;50.836;4.330;2022-10-15T05:17:22;24.95;;;19.80;;
23119;SDS011;11729;50.836;4.330;2022-10-15T05:19:48;26.08;;;19.70;;
23119;SDS011;11729;50.836;4.330;2022-10-15T05:22:14;27.38;;;19.55;;
23119;SDS011;11729;50.836;4.330;2022-10-15T05:24:39;26.15;;;19.73;;
23119;SDS011;11729;50.836;4.330;2022-10-15T05:27:05;22.45;;;18.10;;
23119;SDS011;11729;50.836;4.330;2022-10-15T05:29:30;21.35;;;18.35;;
23119;SDS011;11729;50.836;4.330;2022-10-15T05:31:56;24.27;;;18.30;;
23119;SDS011;11729;50.836;4.330;2022-10-15T05:34:22;20.90;;;17.77;;
23119;SDS011;11729;50.836;4.330;2022-10-15T05:36:48;22.20;;;17.92;;
23119;SDS011;11729;50.836;4.330;2022-10-15T05:39:14;22.45;;;17.25;;
23119;SDS011;11729;50.836;4.330;2022-10-15T05:41:39;24.73;;;17.02;;
23119;SDS011;11729;50.836;4.330;2022-10-15T05:44:05;21.13;;;17.20;;
23119;SDS011;11729;50.836;4.330;2022-10-15T05:46:32;20.25;;;17.13;;
23119;SDS011;11729;50.836;4.330;2022-10-15T05:48:58;19.88;;;16.27;;
23119;SDS011;11729;50.836;4.330;2022-10-15T05:51:24;19.20;;;16.05;;
23119;SDS011;11729;50.836;4.330;2022-10-15T05:53:51;22.57;;;16.77;;
23119;SDS011;11729;50.836;4.330;2022-10-15T05:56:17;17.75;;;15.43;;
23119;SDS011;11729;50.836;4.330;2022-10-15T05:58:43;18.70;;;14.98;;
23119;SDS011;11729;50.836;4.330;2022-10-15T06:01:09;20.00;;;14.73;;
23119;SDS011;11729;50.836;4.330;2022-10-15T06:03:36;19.15;;;14.32;;
23119;SDS011;11729;50.836;4.330;2022-10-15T06:06:02;25.70;;;15.27;;
23119;SDS011;11729;50.836;4.330;2022-10-15T06:08:28;20.70;;;14.20;;
23119;SDS011;11729;50.836;4.330;2022-10-15T06:10:55;19.30;;;14.45;;
23119;SDS011;11729;50.836;4.330;2022-10-15T06:13:26;16.88;;;14.25;;
23119;SDS011;11729;50.836;4.330;2022-10-15T06:15:52;17.10;;;14.00;;
23119;SDS011;11729;50.836;4.330;2022-10-15T06:18:17;20.15;;;13.95;;
23119;SDS011;11729;50.836;4.330;2022-10-15T06:20:43;15.40;;;13.38;;
23119;SDS011;11729;50.836;4.330;2022-10-15T06:23:15;17.40;;;13.60;;
23119;SDS011;11729;50.836;4.330;2022-10-15T06:25:40;16.95;;;13.88;;
23119;SDS011;11729;50.836;4.330;2022-10-15T06:28:06;25.55;;;20.13;;
23119;SDS011;11729;50.836;4.330;2022-10-15T06:30:33;15.27;;;13.60;;
23119;SDS011;11729;50.836;4.330;2022-10-15T06:33:00;19.17;;;16.60;;
23119;SDS011;11729;50.836;4.330;2022-10-15T06:35:25;14.77;;;13.05;;
23119;SDS011;11729;50.836;4.330;2022-10-15T06:37:54;13.70;;;12.32;;
23119;SDS011;11729;50.836;4.330;2022-10-15T06:40:20;15.43;;;12.65;;
23119;SDS011;11729;50.836;4.330;2022-10-15T06:42:45;19.20;;;12.77;;
23119;SDS011;11729;50.836;4.330;2022-10-15T06:45:11;15.18;;;12.77;;
23119;SDS011;11729;50.836;4.330;2022-10-15T06:47:38;14.05;;;12.23;;
23119;SDS011;11729;50.836;4.330;2022-10-15T06:50:05;14.30;;;12.55;;
23119;SDS011;11729;50.836;4.330;2022-10-15T06:52:31;14.02;;;12.63;;
23119;SDS011;11729;50.836;4.330;2022-10-15T06:54:58;15.25;;;11.77;;
23119;SDS011;11729;50.836;4.330;2022-10-15T06:57:25;16.00;;;12.77;;
23119;SDS011;11729;50.836;4.330;2022-10-15T06:59:52;13.50;;;12.10;;
23119;SDS011;11729;50.836;4.330;2022-10-15T07:02:18;13.38;;;12.05;;
23119;SDS011;11729;50.836;4.330;2022-10-15T07:04:44;16.50;;;12.32;;
23119;SDS011;11729;50.836;4.330;2022-10-15T07:07:13;14.20;;;12.68;;
23119;SDS011;11729;50.836;4.330;2022-10-15T07:09:38;14.77;;;13.20;;
23119;SDS011;11729;50.836;4.330;2022-10-15T07:12:04;13.55;;;12.15;;
23119;SDS011;11729;50.836;4.330;2022-10-15T07:14:30;13.23;;;11.90;;
23119;SDS011;11729;50.836;4.330;2022-10-15T07:16:56;12.98;;;11.68;;
23119;SDS011;11729;50.836;4.330;2022-10-15T07:19:22;13.07;;;11.55;;
23119;SDS011;11729;50.836;4.330;2022-10-15T07:21:48;15.40;;;12.52;;
23119;SDS011;11729;50.836;4.330;2022-10-15T07:24:13;13.35;;;11.18;;
23119;SDS011;11729;50.836;4.330;2022-10-15T07:26:39;13.65;;;11.27;;
23119;SDS011;11729;50.836;4.330;2022-10-15T07:29:04;12.13;;;10.93;;
23119;SDS011;11729;50.836;4.330;2022-10-15T07:31:30;12.63;;;11.30;;
23119;SDS011;11729;50.836;4.330;2022-10-15T07:33:56;11.38;;;10.32;;
23119;SDS011;11729;50.836;4.330;2022-10-15T07:36:24;10.48;;;9.52;;
23119;SDS011;11729;50.836;4.330;2022-10-15T07:38:50;10.90;;;9.90;;
23119;SDS011;11729;50.836;4.330;2022-10-15T07:41:16;11.30;;;10.10;;
23119;SDS011;11729;50.836;4.330;2022-10-15T07:43:41;11.05;;;10.05;;
23119;SDS011;11729;50.836;4.330;2022-10-15T07:46:08;10.68;;;9.57;;
23119;SDS011;11729;50.836;4.330;2022-10-15T07:48:34;10.48;;;9.48;;
23119;SDS011;11729;50.836;4.330;2022-10-15T07:51:01;10.68;;;9.50;;
23119;SDS011;11729;50.836;4.330;2022-10-15T07:53:28;11.15;;;10.05;;
23119;SDS011;11729;50.836;4.330;2022-10-15T07:56:02;11.35;;;10.25;;
23119;SDS011;11729;50.836;4.330;2022-10-15T07:58:30;12.95;;;9.88;;
23119;SDS011;11729;50.836;4.330;2022-10-15T08:00:58;10.02;;;9.13;;
23119;SDS011;11729;50.836;4.330;2022-10-15T08:03:25;9.93;;;8.80;;
23119;SDS011;11729;50.836;4.330;2022-10-15T08:05:51;9.55;;;8.75;;
23119;SDS011;11729;50.836;4.330;2022-10-15T08:08:18;10.20;;;9.18;;
23119;SDS011;11729;50.836;4.330;2022-10-15T08:10:44;9.57;;;8.68;;
23119;SDS011;11729;50.836;4.330;2022-10-15T08:13:10;9.68;;;8.60;;
23119;SDS011;11729;50.836;4.330;2022-10-15T08:15:39;9.00;;;8.20;;
23119;SDS011;11729;50.836;4.330;2022-10-15T08:18:06;9.05;;;8.23;;
23119;SDS011;11729;50.836;4.330;2022-10-15T08:20:32;10.43;;;8.88;;
23119;SDS011;11729;50.836;4.330;2022-10-15T08:22:57;18.30;;;13.85;;
23119;SDS011;11729;50.836;4.330;2022-10-15T08:25:23;11.02;;;9.30;;
23119;SDS011;11729;50.836;4.330;2022-10-15T08:27:51;10.70;;;8.27;;
23119;SDS011;11729;50.836;4.330;2022-10-15T08:30:17;8.00;;;7.32;;
23119;SDS011;11729;50.836;4.330;2022-10-15T08:32:43;8.20;;;7.40;;
23119;SDS011;11729;50.836;4.330;2022-10-15T08:35:08;8.13;;;7.03;;
23119;SDS011;11729;50.836;4.330;2022-10-15T08:37:34;8.00;;;6.63;;
23119;SDS011;11729;50.836;4.330;2022-10-15T08:40:00;6.78;;;6.18;;
23119;SDS011;11729;50.836;4.330;2022-10-15T08:42:36;7.35;;;6.65;;
23119;SDS011;11729;50.836;4.330;2022-10-15T08:47:56;6.28;;;5.78;;
23119;SDS011;11729;50.836;4.330;2022-10-15T08:55:23;5.75;;;5.30;;
23119;SDS011;11729;50.836;4.330;2022-10-15T08:57:52;5.53;;;5.07;;
23119;SDS011;11729;50.836;4.330;2022-10-15T09:00:22;5.60;;;5.15;;
23119;SDS011;11729;50.836;4.330;2022-10-15T09:05:26;5.55;;;5.13;;
23119;SDS011;11729;50.836;4.330;2022-10-15T09:08:00;5.95;;;5.45;;
23119;SDS011;11729;50.836;4.330;2022-10-15T09:10:59;5.75;;;5.35;;
23119;SDS011;11729;50.836;4.330;2022-10-15T09:13:32;6.30;;;5.70;;
23119;SDS011;11729;50.836;4.330;2022-10-15T09:16:09;10.63;;;8.20;;
23119;SDS011;11729;50.836;4.330;2022-10-15T09:18:50;7.30;;;6.80;;
23119;SDS011;11729;50.836;4.330;2022-10-15T09:21:16;6.75;;;5.90;;
23119;SDS011;11729;50.836;4.330;2022-10-15T09:23:44;6.00;;;5.55;;
23119;SDS011;11729;50.836;4.330;2022-10-15T09:26:31;6.10;;;5.55;;
23119;SDS011;11729;50.836;4.330;2022-10-15T09:29:14;5.80;;;5.50;;
23119;SDS011;11729;50.836;4.330;2022-10-15T09:31:50;5.82;;;5.32;;
23119;SDS011;11729;50.836;4.330;2022-10-15T09:34:24;5.45;;;5.15;;
23119;SDS011;11729;50.836;4.330;2022-10-15T09:36:51;5.25;;;4.95;;
23119;SDS011;11729;50.836;4.330;2022-10-15T09:39:35;5.47;;;5.18;;
23119;SDS011;11729;50.836;4.330;2022-10-15T09:42:30;6.30;;;5.80;;
23119;SDS011;11729;50.836;4.330;2022-10-15T09:45:04;8.35;;;7.65;;
23119;SDS011;11729;50.836;4.330;2022-10-15T09:47:34;9.48;;;8.57;;
23119;SDS011;11729;50.836;4.330;2022-10-15T09:50:04;11.73;;;10.23;;
23119;SDS011;11729;50.836;4.330;2022-10-15T10:00:59;7.93;;;7.32;;
23119;SDS011;11729;50.836;4.330;2022-10-15T10:03:28;6.82;;;6.28;;
23119;SDS011;11729;50.836;4.330;2022-10-15T10:08:36;7.43;;;6.15;;
23119;SDS011;11729;50.836;4.330;2022-10-15T10:11:05;9.60;;;8.80;;
23119;SDS011;11729;50.836;4.330;2022-10-15T10:13:35;8.73;;;7.93;;
23119;SDS011;11729;50.836;4.330;2022-10-15T10:16:21;9.88;;;9.13;;
23119;SDS011;11729;50.836;4.330;2022-10-15T10:19:01;7.68;;;7.18;;
23119;SDS011;11729;50.836;4.330;2022-10-15T10:21:30;8.05;;;7.30;;
23119;SDS011;11729;50.836;4.330;2022-10-15T10:26:59;6.30;;;5.88;;
23119;SDS011;11729;50.836;4.330;2022-10-15T10:29:26;6.00;;;5.40;;
23119;SDS011;11729;50.836;4.330;2022-10-15T10:31:53;6.25;;;5.68;;
23119;SDS011;11729;50.836;4.330;2022-10-15T10:34:25;5.35;;;4.95;;
23119;SDS011;11729;50.836;4.330;2022-10-15T10:36:52;5.35;;;4.90;;
23119;SDS011;11729;50.836;4.330;2022-10-15T10:39:26;5.63;;;5.22;;
23119;SDS011;11729;50.836;4.330;2022-10-15T10:41:58;5.55;;;5.00;;
23119;SDS011;11729;50.836;4.330;2022-10-15T10:49:34;6.20;;;5.50;;
23119;SDS011;11729;50.836;4.330;2022-10-15T10:52:01;6.40;;;5.82;;
23119;SDS011;11729;50.836;4.330;2022-10-15T10:54:28;6.22;;;5.70;;
23119;SDS011;11729;50.836;4.330;2022-10-15T10:56:56;9.35;;;8.48;;
23119;SDS011;11729;50.836;4.330;2022-10-15T10:59:25;9.38;;;8.32;;
23119;SDS011;11729;50.836;4.330;2022-10-15T11:01:54;7.50;;;6.90;;
23119;SDS011;11729;50.836;4.330;2022-10-15T11:04:24;6.00;;;5.50;;
23119;SDS011;11729;50.836;4.330;2022-10-15T11:07:05;6.43;;;4.93;;
23119;SDS011;11729;50.836;4.330;2022-10-15T11:18:22;5.00;;;4.50;;
23119;SDS011;11729;50.836;4.330;2022-10-15T11:23:56;4.82;;;4.53;;
23119;SDS011;11729;50.836;4.330;2022-10-15T11:40:12;5.72;;;5.07;;
23119;SDS011;11729;50.836;4.330;2022-10-15T11:43:06;5.28;;;4.88;;
23119;SDS011;11729;50.836;4.330;2022-10-15T11:45:51;9.20;;;6.55;;
23119;SDS011;11729;50.836;4.330;2022-10-15T11:48:33;9.82;;;7.80;;
23119;SDS011;11729;50.836;4.330;2022-10-15T11:51:02;5.22;;;4.72;;
23119;SDS011;11729;50.836;4.330;2022-10-15T11:56:35;5.60;;;5.10;;
23119;SDS011;11729;50.836;4.330;2022-10-15T11:59:50;7.13;;;6.53;;
23119;SDS011;11729;50.836;4.330;2022-10-15T12:02:10;6.82;;;6.20;;
23119;SDS011;11729;50.836;4.330;2022-10-15T12:05:04;7.63;;;6.32;;
23119;SDS011;11729;50.836;4.330;2022-10-15T12:08:09;6.25;;;5.70;;
23119;SDS011;11729;50.836;4.330;2022-10-15T12:13:50;6.30;;;5.90;;
23119;SDS011;11729;50.836;4.330;2022-10-15T12:16:29;7.75;;;7.07;;
23119;SDS011;11729;50.836;4.330;2022-10-15T12:19:18;6.70;;;5.93;;
23119;SDS011;11729;50.836;4.330;2022-10-15T12:24:47;5.93;;;4.97;;
23119;SDS011;11729;50.836;4.330;2022-10-15T12:27:20;4.50;;;4.30;;
23119;SDS011;11729;50.836;4.330;2022-10-15T12:32:25;4.53;;;4.32;;
23119;SDS011;11729;50.836;4.330;2022-10-15T12:35:06;4.72;;;4.30;;
23119;SDS011;11729;50.836;4.330;2022-10-15T12:37:38;4.90;;;4.60;;
23119;SDS011;11729;50.836;4.330;2022-10-15T12:40:05;5.07;;;4.57;;
23119;SDS011;11729;50.836;4.330;2022-10-15T12:43:02;7.95;;;4.90;;
23119;SDS011;11729;50.836;4.330;2022-10-15T12:45:37;5.07;;;4.68;;
23119;SDS011;11729;50.836;4.330;2022-10-15T12:50:39;5.22;;;4.50;;
23119;SDS011;11729;50.836;4.330;2022-10-15T12:53:27;5.78;;;4.75;;
23119;SDS011;11729;50.836;4.330;2022-10-15T12:58:54;4.90;;;4.50;;
23119;SDS011;11729;50.836;4.330;2022-10-15T13:16:36;4.65;;;4.20;;
23119;SDS011;11729;50.836;4.330;2022-10-15T13:19:06;4.88;;;4.47;;
23119;SDS011;11729;50.836;4.330;2022-10-15T13:21:51;4.68;;;4.13;;
23119;SDS011;11729;50.836;4.330;2022-10-15T13:24:23;4.88;;;4.40;;
23119;SDS011;11729;50.836;4.330;2022-10-15T13:26:52;5.38;;;4.20;;
23119;SDS011;11729;50.836;4.330;2022-10-15T13:29:23;6.90;;;4.30;;
23119;SDS011;11729;50.836;4.330;2022-10-15T13:31:50;4.97;;;4.30;;
23119;SDS011;11729;50.836;4.330;2022-10-15T13:36:55;6.55;;;4.55;;
23119;SDS011;11729;50.836;4.330;2022-10-15T13:39:37;5.47;;;4.28;;
23119;SDS011;11729;50.836;4.330;2022-10-15T13:44:38;8.55;;;4.20;;
23119;SDS011;11729;50.836;4.330;2022-10-15T13:47:18;5.20;;;4.38;;
23119;SDS011;11729;50.836;4.330;2022-10-15T13:50:11;10.38;;;8.43;;
23119;SDS011;11729;50.836;4.330;2022-10-15T13:52:52;9.88;;;7.72;;
23119;SDS011;11729;50.836;4.330;2022-10-15T13:55:22;6.85;;;4.82;;
23119;SDS011;11729;50.836;4.330;2022-10-15T13:57:50;8.18;;;4.40;;
23119;SDS011;11729;50.836;4.330;2022-10-15T14:00:22;4.68;;;4.30;;
23119;SDS011;11729;50.836;4.330;2022-10-15T14:05:39;5.30;;;4.60;;
23119;SDS011;11729;50.836;4.330;2022-10-15T14:08:13;5.28;;;4.60;;
23119;SDS011;11729;50.836;4.330;2022-10-15T14:10:43;5.15;;;4.60;;
23119;SDS011;11729;50.836;4.330;2022-10-15T14:13:09;5.10;;;4.50;;
23119;SDS011;11729;50.836;4.330;2022-10-15T14:15:39;8.80;;;4.90;;
23119;SDS011;11729;50.836;4.330;2022-10-15T14:18:05;9.00;;;4.65;;
23119;SDS011;11729;50.836;4.330;2022-10-15T14:20:31;5.00;;;4.50;;
23119;SDS011;11729;50.836;4.330;2022-10-15T14:22:57;10.05;;;4.70;;
23119;SDS011;11729;50.836;4.330;2022-10-15T14:25:24;5.85;;;4.03;;
23119;SDS011;11729;50.836;4.330;2022-10-15T14:27:50;4.97;;;4.22;;
23119;SDS011;11729;50.836;4.330;2022-10-15T14:30:21;6.20;;;4.53;;
23119;SDS011;11729;50.836;4.330;2022-10-15T14:32:58;5.65;;;4.55;;
23119;SDS011;11729;50.836;4.330;2022-10-15T14:35:24;10.18;;;5.30;;
23119;SDS011;11729;50.836;4.330;2022-10-15T14:38:04;9.23;;;6.05;;
23119;SDS011;11729;50.836;4.330;2022-10-15T14:40:33;7.93;;;5.22;;
23119;SDS011;11729;50.836;4.330;2022-10-15T14:45:42;5.43;;;4.35;;
23119;SDS011;11729;50.836;4.330;2022-10-15T14:48:27;7.55;;;4.60;;
23119;SDS011;11729;50.836;4.330;2022-10-15T14:51:02;8.53;;;4.93;;
23119;SDS011;11729;50.836;4.330;2022-10-15T14:53:36;8.13;;;5.00;;
23119;SDS011;11729;50.836;4.330;2022-10-15T14:56:09;5.78;;;4.60;;
23119;SDS011;11729;50.836;4.330;2022-10-15T14:58:53;6.30;;;4.65;;
23119;SDS011;11729;50.836;4.330;2022-10-15T15:01:20;7.32;;;5.03;;
23119;SDS011;11729;50.836;4.330;2022-10-15T15:03:48;6.22;;;4.63;;
23119;SDS011;11729;50.836;4.330;2022-10-15T15:06:17;8.73;;;4.90;;
23119;SDS011;11729;50.836;4.330;2022-10-15T15:08:43;6.18;;;4.80;;
23119;SDS011;11729;50.836;4.330;2022-10-15T15:11:11;6.38;;;4.70;;
23119;SDS011;11729;50.836;4.330;2022-10-15T15:13:40;9.95;;;6.70;;
23119;SDS011;11729;50.836;4.330;2022-10-15T15:16:10;8.05;;;5.45;;
23119;SDS011;11729;50.836;4.330;2022-10-15T15:18:37;10.82;;;4.97;;
23119;SDS011;11729;50.836;4.330;2022-10-15T15:21:04;11.90;;;4.65;;
23119;SDS011;11729;50.836;4.330;2022-10-15T15:25:58;7.60;;;4.93;;
23119;SDS011;11729;50.836;4.330;2022-10-15T15:28:24;7.88;;;4.93;;
23119;SDS011;11729;50.836;4.330;2022-10-15T15:31:02;7.43;;;4.97;;
23119;SDS011;11729;50.836;4.330;2022-10-15T15:33:31;7.25;;;4.88;;
23119;SDS011;11729;50.836;4.330;2022-10-15T15:38:27;7.30;;;5.05;;
23119;SDS011;11729;50.836;4.330;2022-10-15T15:40:59;7.97;;;5.20;;
23119;SDS011;11729;50.836;4.330;2022-10-15T15:43:44;11.52;;;5.40;;
23119;SDS011;11729;50.836;4.330;2022-10-15T15:46:10;6.95;;;4.80;;
23119;SDS011;11729;50.836;4.330;2022-10-15T15:48:36;13.25;;;5.20;;
23119;SDS011;11729;50.836;4.330;2022-10-15T15:53:57;6.20;;;4.95;;
23119;SDS011;11729;50.836;4.330;2022-10-15T15:56:23;5.88;;;4.72;;
23119;SDS011;11729;50.836;4.330;2022-10-15T15:58:49;5.63;;;4.90;;
23119;SDS011;11729;50.836;4.330;2022-10-15T16:01:16;9.40;;;4.97;;
23119;SDS011;11729;50.836;4.330;2022-10-15T16:03:42;9.07;;;5.25;;
23119;SDS011;11729;50.836;4.330;2022-10-15T16:06:08;5.53;;;4.85;;
23119;SDS011;11729;50.836;4.330;2022-10-15T16:08:34;8.18;;;5.05;;
23119;SDS011;11729;50.836;4.330;2022-10-15T16:11:01;6.45;;;5.00;;
23119;SDS011;11729;50.836;4.330;2022-10-15T16:13:27;9.75;;;5.63;;
23119;SDS011;11729;50.836;4.330;2022-10-15T16:15:53;8.15;;;5.13;;
23119;SDS011;11729;50.836;4.330;2022-10-15T16:18:19;8.07;;;4.97;;
23119;SDS011;11729;50.836;4.330;2022-10-15T16:20:44;9.15;;;5.20;;
23119;SDS011;11729;50.836;4.330;2022-10-15T16:23:10;9.57;;;5.40;;
23119;SDS011;11729;50.836;4.330;2022-10-15T16:25:36;9.18;;;4.90;;
23119;SDS011;11729;50.836;4.330;2022-10-15T16:28:01;8.05;;;5.07;;
23119;SDS011;11729;50.836;4.330;2022-10-15T16:30:27;6.72;;;5.00;;
23119;SDS011;11729;50.836;4.330;2022-10-15T16:32:53;9.75;;;5.00;;
23119;SDS011;11729;50.836;4.330;2022-10-15T16:35:18;9.55;;;5.28;;
23119;SDS011;11729;50.836;4.330;2022-10-15T16:37:44;9.57;;;5.13;;
23119;SDS011;11729;50.836;4.330;2022-10-15T16:40:10;8.00;;;5.10;;
23119;SDS011;11729;50.836;4.330;2022-10-15T16:42:36;7.35;;;4.90;;
23119;SDS011;11729;50.836;4.330;2022-10-15T16:45:02;7.90;;;5.05;;
23119;SDS011;11729;50.836;4.330;2022-10-15T16:47:28;9.90;;;5.15;;
23119;SDS011;11729;50.836;4.330;2022-10-15T16:49:54;13.73;;;5.30;;
23119;SDS011;11729;50.836;4.330;2022-10-15T16:52:20;8.10;;;5.43;;
23119;SDS011;11729;50.836;4.330;2022-10-15T16:54:45;9.50;;;5.53;;
23119;SDS011;11729;50.836;4.330;2022-10-15T16:57:11;7.50;;;5.03;;
23119;SDS011;11729;50.836;4.330;2022-10-15T16:59:37;9.85;;;5.35;;
23119;SDS011;11729;50.836;4.330;2022-10-15T17:02:02;9.52;;;5.30;;
23119;SDS011;11729;50.836;4.330;2022-10-15T17:04:28;10.25;;;5.40;;